sensor_id;sensor_type;location;lat;lon;timestamp;temperature;humidity
8114;DHT22;4099;52.684;9.918;2023-08-01T00:03:27;16.80;99.90
8114;DHT22;4099;52.684;9.918;2023-08-01T00:08:30;16.70;99.90
8114;DHT22;4099;52.684;9.918;2023-08-01T00:13:34;16.70;99.90
8114;DHT22;4099;52.684;9.918;2023-08-01T00:18:36;16.60;99.90
8114;DHT22;4099;52.684;9.918;2023-08-01T00:23:39;16.60;99.90
8114;DHT22;4099;52.684;9.918;2023-08-01T00:28:44;16.50;99.90
8114;DHT22;4099;52.684;9.918;2023-08-01T00:33:46;16.40;99.90
8114;DHT22;4099;52.684;9.918;2023-08-01T00:38:48;16.40;99.90
8114;DHT22;4099;52.684;9.918;2023-08-01T00:43:51;16.40;99.90
8114;DHT22;4099;52.684;9.918;2023-08-01T00:48:54;16.30;99.90
8114;DHT22;4099;52.684;9.918;2023-08-01T00:54:00;16.40;99.90
8114;DHT22;4099;52.684;9.918;2023-08-01T00:59:05;16.30;99.90
8114;DHT22;4099;52.684;9.918;2023-08-01T01:04:07;16.40;99.90
8114;DHT22;4099;52.684;9.918;2023-08-01T01:09:16;16.40;99.90
8114;DHT22;4099;52.684;9.918;2023-08-01T01:14:19;16.30;99.90
8114;DHT22;4099;52.684;9.918;2023-08-01T01:19:22;16.40;99.90
8114;DHT22;4099;52.684;9.918;2023-08-01T01:24:27;16.40;99.90
8114;DHT22;4099;52.684;9.918;2023-08-01T01:29:30;16.40;99.90
8114;DHT22;4099;52.684;9.918;2023-08-01T01:34:32;16.40;99.90
8114;DHT22;4099;52.684;9.918;2023-08-01T01:39:36;16.40;99.90
8114;DHT22;4099;52.684;9.918;2023-08-01T01:44:38;16.40;99.90
8114;DHT22;4099;52.684;9.918;2023-08-01T01:49:40;16.40;99.90
8114;DHT22;4099;52.684;9.918;2023-08-01T01:54:43;16.50;99.90
8114;DHT22;4099;52.684;9.918;2023-08-01T01:59:45;16.50;99.90
8114;DHT22;4099;52.684;9.918;2023-08-01T02:04:49;16.40;99.90
8114;DHT22;4099;52.684;9.918;2023-08-01T02:09:53;16.50;99.90
8114;DHT22;4099;52.684;9.918;2023-08-01T02:14:56;16.50;99.90
8114;DHT22;4099;52.684;9.918;2023-08-01T02:19:58;16.50;99.90
8114;DHT22;4099;52.684;9.918;2023-08-01T02:25:01;16.50;99.90
8114;DHT22;4099;52.684;9.918;2023-08-01T02:30:04;16.50;99.90
8114;DHT22;4099;52.684;9.918;2023-08-01T02:35:07;16.50;99.90
8114;DHT22;4099;52.684;9.918;2023-08-01T02:40:11;16.50;99.90
8114;DHT22;4099;52.684;9.918;2023-08-01T02:45:14;16.40;99.90
8114;DHT22;4099;52.684;9.918;2023-08-01T02:50:17;16.40;99.90
8114;DHT22;4099;52.684;9.918;2023-08-01T02:55:21;16.50;99.90
8114;DHT22;4099;52.684;9.918;2023-08-01T03:00:24;16.50;99.90
8114;DHT22;4099;52.684;9.918;2023-08-01T03:05:29;16.50;99.90
8114;DHT22;4099;52.684;9.918;2023-08-01T03:10:32;16.50;99.90
8114;DHT22;4099;52.684;9.918;2023-08-01T03:15:35;16.50;99.90
8114;DHT22;4099;52.684;9.918;2023-08-01T03:20:37;16.50;99.90
8114;DHT22;4099;52.684;9.918;2023-08-01T03:25:41;16.50;99.90
8114;DHT22;4099;52.684;9.918;2023-08-01T03:30:43;16.40;99.90
8114;DHT22;4099;52.684;9.918;2023-08-01T03:35:45;16.50;99.90
8114;DHT22;4099;52.684;9.918;2023-08-01T03:40:49;16.50;99.90
8114;DHT22;4099;52.684;9.918;2023-08-01T03:45:51;16.40;99.90
8114;DHT22;4099;52.684;9.918;2023-08-01T03:50:56;16.40;99.90
8114;DHT22;4099;52.684;9.918;2023-08-01T03:55:59;16.50;99.90
8114;DHT22;4099;52.684;9.918;2023-08-01T04:01:01;16.30;99.90
8114;DHT22;4099;52.684;9.918;2023-08-01T04:06:03;16.30;99.90
8114;DHT22;4099;52.684;9.918;2023-08-01T04:11:07;16.30;99.90
8114;DHT22;4099;52.684;9.918;2023-08-01T04:16:09;16.30;99.90
8114;DHT22;4099;52.684;9.918;2023-08-01T04:21:12;16.30;99.90
8114;DHT22;4099;52.684;9.918;2023-08-01T04:26:16;16.30;99.90
8114;DHT22;4099;52.684;9.918;2023-08-01T04:31:18;16.30;99.90
8114;DHT22;4099;52.684;9.918;2023-08-01T04:36:20;16.20;99.90
8114;DHT22;4099;52.684;9.918;2023-08-01T04:41:23;16.10;99.90
8114;DHT22;4099;52.684;9.918;2023-08-01T04:46:25;16.00;99.90
8114;DHT22;4099;52.684;9.918;2023-08-01T04:51:27;16.00;99.90
8114;DHT22;4099;52.684;9.918;2023-08-01T04:56:31;16.00;99.90
8114;DHT22;4099;52.684;9.918;2023-08-01T05:01:33;15.90;99.90
8114;DHT22;4099;52.684;9.918;2023-08-01T05:06:35;16.00;99.90
8114;DHT22;4099;52.684;9.918;2023-08-01T05:11:39;16.00;99.90
8114;DHT22;4099;52.684;9.918;2023-08-01T05:16:40;16.10;99.90
8114;DHT22;4099;52.684;9.918;2023-08-01T05:21:43;16.10;99.90
8114;DHT22;4099;52.684;9.918;2023-08-01T05:26:47;16.20;99.90
8114;DHT22;4099;52.684;9.918;2023-08-01T05:31:49;16.10;99.90
8114;DHT22;4099;52.684;9.918;2023-08-01T05:36:52;16.20;99.90
8114;DHT22;4099;52.684;9.918;2023-08-01T05:41:55;16.20;99.90
8114;DHT22;4099;52.684;9.918;2023-08-01T05:46:58;16.30;99.90
8114;DHT22;4099;52.684;9.918;2023-08-01T05:52:00;16.40;99.90
8114;DHT22;4099;52.684;9.918;2023-08-01T05:57:04;16.40;99.90
8114;DHT22;4099;52.684;9.918;2023-08-01T06:02:07;16.40;99.90
8114;DHT22;4099;52.684;9.918;2023-08-01T06:07:09;16.50;99.90
8114;DHT22;4099;52.684;9.918;2023-08-01T06:12:12;16.50;99.90
8114;DHT22;4099;52.684;9.918;2023-08-01T06:17:14;16.50;99.90
8114;DHT22;4099;52.684;9.918;2023-08-01T06:22:16;16.40;99.90
8114;DHT22;4099;52.684;9.918;2023-08-01T06:27:19;16.50;99.90
8114;DHT22;4099;52.684;9.918;2023-08-01T06:32:22;16.50;99.90
8114;DHT22;4099;52.684;9.918;2023-08-01T06:37:24;16.40;99.90
8114;DHT22;4099;52.684;9.918;2023-08-01T06:42:27;16.50;99.90
8114;DHT22;4099;52.684;9.918;2023-08-01T06:47:29;16.50;99.90
8114;DHT22;4099;52.684;9.918;2023-08-01T06:52:32;16.60;99.90
8114;DHT22;4099;52.684;9.918;2023-08-01T06:57:35;16.70;99.90
8114;DHT22;4099;52.684;9.918;2023-08-01T07:02:37;16.80;99.90
8114;DHT22;4099;52.684;9.918;2023-08-01T07:07:39;16.90;99.90
8114;DHT22;4099;52.684;9.918;2023-08-01T07:12:42;16.90;99.90
8114;DHT22;4099;52.684;9.918;2023-08-01T07:17:44;16.90;99.90
8114;DHT22;4099;52.684;9.918;2023-08-01T07:22:46;16.90;99.90
8114;DHT22;4099;52.684;9.918;2023-08-01T07:27:50;16.90;99.90
8114;DHT22;4099;52.684;9.918;2023-08-01T07:32:51;17.30;99.90
8114;DHT22;4099;52.684;9.918;2023-08-01T07:37:53;17.30;99.90
8114;DHT22;4099;52.684;9.918;2023-08-01T07:42:56;17.40;99.90
8114;DHT22;4099;52.684;9.918;2023-08-01T07:48:00;17.40;99.90
8114;DHT22;4099;52.684;9.918;2023-08-01T07:53:02;17.50;99.90
8114;DHT22;4099;52.684;9.918;2023-08-01T07:58:06;17.50;99.90
8114;DHT22;4099;52.684;9.918;2023-08-01T08:03:08;17.60;99.90
8114;DHT22;4099;52.684;9.918;2023-08-01T08:08:10;17.70;99.90
8114;DHT22;4099;52.684;9.918;2023-08-01T08:13:13;17.90;99.90
8114;DHT22;4099;52.684;9.918;2023-08-01T08:18:15;18.00;99.90
8114;DHT22;4099;52.684;9.918;2023-08-01T08:23:19;18.30;99.90
8114;DHT22;4099;52.684;9.918;2023-08-01T08:28:29;18.60;99.90
8114;DHT22;4099;52.684;9.918;2023-08-01T08:33:31;18.50;99.90
8114;DHT22;4099;52.684;9.918;2023-08-01T08:38:33;18.30;99.90
8114;DHT22;4099;52.684;9.918;2023-08-01T08:43:37;18.40;99.90
8114;DHT22;4099;52.684;9.918;2023-08-01T08:48:40;19.10;99.90
8114;DHT22;4099;52.684;9.918;2023-08-01T08:53:44;19.50;99.90
8114;DHT22;4099;52.684;9.918;2023-08-01T08:58:52;19.00;99.90
8114;DHT22;4099;52.684;9.918;2023-08-01T09:03:56;19.00;99.90
8114;DHT22;4099;52.684;9.918;2023-08-01T09:09:02;18.50;99.90
8114;DHT22;4099;52.684;9.918;2023-08-01T09:14:07;18.70;99.90
8114;DHT22;4099;52.684;9.918;2023-08-01T09:19:11;19.30;99.90
8114;DHT22;4099;52.684;9.918;2023-08-01T09:24:15;19.80;99.90
8114;DHT22;4099;52.684;9.918;2023-08-01T09:29:20;19.60;99.90
8114;DHT22;4099;52.684;9.918;2023-08-01T09:34:23;19.90;99.90
8114;DHT22;4099;52.684;9.918;2023-08-01T09:39:26;20.60;99.90
8114;DHT22;4099;52.684;9.918;2023-08-01T09:44:30;20.90;99.90
8114;DHT22;4099;52.684;9.918;2023-08-01T09:49:32;20.50;99.90
8114;DHT22;4099;52.684;9.918;2023-08-01T09:54:35;20.50;99.90
8114;DHT22;4099;52.684;9.918;2023-08-01T09:59:39;20.80;99.90
8114;DHT22;4099;52.684;9.918;2023-08-01T10:04:41;20.90;99.90
8114;DHT22;4099;52.684;9.918;2023-08-01T10:09:46;21.40;99.90
8114;DHT22;4099;52.684;9.918;2023-08-01T10:14:51;22.10;99.90
8114;DHT22;4099;52.684;9.918;2023-08-01T10:19:55;22.30;99.90
8114;DHT22;4099;52.684;9.918;2023-08-01T10:24:59;22.10;99.90
8114;DHT22;4099;52.684;9.918;2023-08-01T10:30:05;21.60;99.90
8114;DHT22;4099;52.684;9.918;2023-08-01T10:35:08;21.10;99.90
8114;DHT22;4099;52.684;9.918;2023-08-01T10:40:11;21.30;99.90
8114;DHT22;4099;52.684;9.918;2023-08-01T10:45:22;21.70;99.90
8114;DHT22;4099;52.684;9.918;2023-08-01T10:50:24;22.10;99.90
8114;DHT22;4099;52.684;9.918;2023-08-01T10:55:27;21.10;99.90
8114;DHT22;4099;52.684;9.918;2023-08-01T11:00:30;20.20;99.90
8114;DHT22;4099;52.684;9.918;2023-08-01T11:05:32;20.20;99.90
8114;DHT22;4099;52.684;9.918;2023-08-01T11:10:34;21.50;99.90
8114;DHT22;4099;52.684;9.918;2023-08-01T11:15:39;22.20;99.90
8114;DHT22;4099;52.684;9.918;2023-08-01T11:20:41;22.90;99.90
8114;DHT22;4099;52.684;9.918;2023-08-01T11:25:43;23.50;99.90
8114;DHT22;4099;52.684;9.918;2023-08-01T11:30:51;23.10;99.90
8114;DHT22;4099;52.684;9.918;2023-08-01T11:35:54;22.40;99.90
8114;DHT22;4099;52.684;9.918;2023-08-01T11:40:58;21.70;99.90
8114;DHT22;4099;52.684;9.918;2023-08-01T11:46:02;21.00;99.90
8114;DHT22;4099;52.684;9.918;2023-08-01T11:51:04;20.30;99.90
8114;DHT22;4099;52.684;9.918;2023-08-01T11:56:07;19.60;99.90
8114;DHT22;4099;52.684;9.918;2023-08-01T12:01:11;18.60;99.90
8114;DHT22;4099;52.684;9.918;2023-08-01T12:06:14;18.60;99.90
8114;DHT22;4099;52.684;9.918;2023-08-01T12:11:18;19.70;99.90
8114;DHT22;4099;52.684;9.918;2023-08-01T12:16:22;20.30;99.90
8114;DHT22;4099;52.684;9.918;2023-08-01T12:21:24;21.40;99.90
8114;DHT22;4099;52.684;9.918;2023-08-01T12:26:26;21.40;99.90
8114;DHT22;4099;52.684;9.918;2023-08-01T12:31:30;21.10;99.90
8114;DHT22;4099;52.684;9.918;2023-08-01T12:36:35;22.00;99.90
8114;DHT22;4099;52.684;9.918;2023-08-01T12:41:38;22.20;99.90
8114;DHT22;4099;52.684;9.918;2023-08-01T12:46:41;21.40;99.90
8114;DHT22;4099;52.684;9.918;2023-08-01T12:51:43;20.50;99.90
8114;DHT22;4099;52.684;9.918;2023-08-01T12:56:45;19.00;99.90
8114;DHT22;4099;52.684;9.918;2023-08-01T13:01:49;18.50;99.90
8114;DHT22;4099;52.684;9.918;2023-08-01T13:06:51;18.60;99.90
8114;DHT22;4099;52.684;9.918;2023-08-01T13:11:53;18.80;99.90
8114;DHT22;4099;52.684;9.918;2023-08-01T13:16:58;19.20;99.90
8114;DHT22;4099;52.684;9.918;2023-08-01T13:22:01;19.20;99.90
8114;DHT22;4099;52.684;9.918;2023-08-01T13:27:05;19.00;99.90
8114;DHT22;4099;52.684;9.918;2023-08-01T13:32:10;18.80;99.90
8114;DHT22;4099;52.684;9.918;2023-08-01T13:37:12;19.10;99.90
8114;DHT22;4099;52.684;9.918;2023-08-01T13:42:14;19.60;99.90
8114;DHT22;4099;52.684;9.918;2023-08-01T13:47:18;19.70;99.90
8114;DHT22;4099;52.684;9.918;2023-08-01T13:52:20;19.90;99.90
8114;DHT22;4099;52.684;9.918;2023-08-01T13:57:22;20.10;99.90
8114;DHT22;4099;52.684;9.918;2023-08-01T14:02:27;20.60;99.90
8114;DHT22;4099;52.684;9.918;2023-08-01T14:07:34;20.50;99.90
8114;DHT22;4099;52.684;9.918;2023-08-01T14:12:37;20.30;99.90
8114;DHT22;4099;52.684;9.918;2023-08-01T14:17:41;20.60;99.90
8114;DHT22;4099;52.684;9.918;2023-08-01T14:22:43;20.50;99.90
8114;DHT22;4099;52.684;9.918;2023-08-01T14:27:46;20.40;99.90
8114;DHT22;4099;52.684;9.918;2023-08-01T14:32:50;20.60;99.90
8114;DHT22;4099;52.684;9.918;2023-08-01T14:37:52;20.10;99.90
8114;DHT22;4099;52.684;9.918;2023-08-01T14:42:56;19.60;99.90
8114;DHT22;4099;52.684;9.918;2023-08-01T14:48:00;19.50;99.90
8114;DHT22;4099;52.684;9.918;2023-08-01T14:53:02;19.90;99.90
8114;DHT22;4099;52.684;9.918;2023-08-01T14:58:04;20.60;99.90
8114;DHT22;4099;52.684;9.918;2023-08-01T15:03:09;21.30;99.90
8114;DHT22;4099;52.684;9.918;2023-08-01T15:08:12;20.70;99.90
8114;DHT22;4099;52.684;9.918;2023-08-01T15:13:14;19.90;99.90
8114;DHT22;4099;52.684;9.918;2023-08-01T15:18:17;19.60;99.90
8114;DHT22;4099;52.684;9.918;2023-08-01T15:23:19;19.80;99.90
8114;DHT22;4099;52.684;9.918;2023-08-01T15:28:22;20.00;99.90
8114;DHT22;4099;52.684;9.918;2023-08-01T15:33:26;19.90;99.90
8114;DHT22;4099;52.684;9.918;2023-08-01T15:38:29;19.50;99.90
8114;DHT22;4099;52.684;9.918;2023-08-01T15:43:32;19.10;99.90
8114;DHT22;4099;52.684;9.918;2023-08-01T15:48:36;19.20;99.90
8114;DHT22;4099;52.684;9.918;2023-08-01T15:53:39;19.80;99.90
8114;DHT22;4099;52.684;9.918;2023-08-01T15:58:41;20.30;99.90
8114;DHT22;4099;52.684;9.918;2023-08-01T16:03:44;20.20;99.90
8114;DHT22;4099;52.684;9.918;2023-08-01T16:08:46;19.80;99.90
8114;DHT22;4099;52.684;9.918;2023-08-01T16:13:49;19.70;99.90
8114;DHT22;4099;52.684;9.918;2023-08-01T16:18:52;19.70;99.90
8114;DHT22;4099;52.684;9.918;2023-08-01T16:23:55;19.70;99.90
8114;DHT22;4099;52.684;9.918;2023-08-01T16:29:01;19.70;99.90
8114;DHT22;4099;52.684;9.918;2023-08-01T16:34:05;19.80;99.90
8114;DHT22;4099;52.684;9.918;2023-08-01T16:39:07;20.40;99.90
8114;DHT22;4099;52.684;9.918;2023-08-01T16:44:09;22.30;99.90
8114;DHT22;4099;52.684;9.918;2023-08-01T16:49:13;23.00;99.90
8114;DHT22;4099;52.684;9.918;2023-08-01T16:54:15;22.40;99.90
8114;DHT22;4099;52.684;9.918;2023-08-01T16:59:17;21.40;99.90
8114;DHT22;4099;52.684;9.918;2023-08-01T17:04:21;20.80;99.90
8114;DHT22;4099;52.684;9.918;2023-08-01T17:09:24;20.40;99.90
8114;DHT22;4099;52.684;9.918;2023-08-01T17:14:28;20.60;99.90
8114;DHT22;4099;52.684;9.918;2023-08-01T17:19:31;20.00;99.90
8114;DHT22;4099;52.684;9.918;2023-08-01T17:24:33;19.40;99.90
8114;DHT22;4099;52.684;9.918;2023-08-01T17:29:36;19.50;99.90
8114;DHT22;4099;52.684;9.918;2023-08-01T17:34:39;20.00;99.90
8114;DHT22;4099;52.684;9.918;2023-08-01T17:39:41;23.80;99.90
8114;DHT22;4099;52.684;9.918;2023-08-01T17:44:43;24.30;99.90
8114;DHT22;4099;52.684;9.918;2023-08-01T17:49:46;21.80;99.90
8114;DHT22;4099;52.684;9.918;2023-08-01T17:54:49;20.00;99.90
8114;DHT22;4099;52.684;9.918;2023-08-01T17:59:50;19.30;99.90
8114;DHT22;4099;52.684;9.918;2023-08-01T18:04:54;18.90;99.90
8114;DHT22;4099;52.684;9.918;2023-08-01T18:09:59;18.80;99.90
8114;DHT22;4099;52.684;9.918;2023-08-01T18:15:02;18.70;99.90
8114;DHT22;4099;52.684;9.918;2023-08-01T18:20:07;18.50;99.90
8114;DHT22;4099;52.684;9.918;2023-08-01T18:25:11;18.40;99.90
8114;DHT22;4099;52.684;9.918;2023-08-01T18:30:14;18.30;99.90
8114;DHT22;4099;52.684;9.918;2023-08-01T18:35:18;18.10;99.90
8114;DHT22;4099;52.684;9.918;2023-08-01T18:40:20;18.00;99.90
8114;DHT22;4099;52.684;9.918;2023-08-01T18:45:23;18.00;99.90
8114;DHT22;4099;52.684;9.918;2023-08-01T18:50:29;17.90;99.90
8114;DHT22;4099;52.684;9.918;2023-08-01T18:55:33;17.90;99.90
8114;DHT22;4099;52.684;9.918;2023-08-01T19:00:35;17.90;99.90
8114;DHT22;4099;52.684;9.918;2023-08-01T19:05:39;17.70;99.90
8114;DHT22;4099;52.684;9.918;2023-08-01T19:10:41;17.70;99.90
8114;DHT22;4099;52.684;9.918;2023-08-01T19:15:43;17.70;99.90
8114;DHT22;4099;52.684;9.918;2023-08-01T19:20:47;17.70;99.90
8114;DHT22;4099;52.684;9.918;2023-08-01T19:25:50;17.50;99.90
8114;DHT22;4099;52.684;9.918;2023-08-01T19:30:52;17.40;99.90
8114;DHT22;4099;52.684;9.918;2023-08-01T19:35:55;17.30;99.90
8114;DHT22;4099;52.684;9.918;2023-08-01T19:40:59;17.30;99.90
8114;DHT22;4099;52.684;9.918;2023-08-01T19:46:01;17.20;99.90
8114;DHT22;4099;52.684;9.918;2023-08-01T19:51:15;17.20;99.90
8114;DHT22;4099;52.684;9.918;2023-08-01T19:56:17;17.10;99.90
8114;DHT22;4099;52.684;9.918;2023-08-01T20:01:19;17.10;99.90
8114;DHT22;4099;52.684;9.918;2023-08-01T20:06:22;17.10;99.90
8114;DHT22;4099;52.684;9.918;2023-08-01T20:11:28;17.10;99.90
8114;DHT22;4099;52.684;9.918;2023-08-01T20:16:32;17.00;99.90
8114;DHT22;4099;52.684;9.918;2023-08-01T20:21:38;17.00;99.90
8114;DHT22;4099;52.684;9.918;2023-08-01T20:26:41;17.00;99.90
8114;DHT22;4099;52.684;9.918;2023-08-01T20:31:44;17.00;99.90
8114;DHT22;4099;52.684;9.918;2023-08-01T20:36:48;17.00;99.90
8114;DHT22;4099;52.684;9.918;2023-08-01T20:41:51;17.00;99.90
8114;DHT22;4099;52.684;9.918;2023-08-01T20:46:53;17.00;99.90
8114;DHT22;4099;52.684;9.918;2023-08-01T20:51:57;17.00;99.90
8114;DHT22;4099;52.684;9.918;2023-08-01T20:57:03;17.00;99.90
8114;DHT22;4099;52.684;9.918;2023-08-01T21:02:05;17.00;99.90
8114;DHT22;4099;52.684;9.918;2023-08-01T21:07:11;16.90;99.90
8114;DHT22;4099;52.684;9.918;2023-08-01T21:12:13;16.80;99.90
8114;DHT22;4099;52.684;9.918;2023-08-01T21:17:16;16.80;99.90
8114;DHT22;4099;52.684;9.918;2023-08-01T21:22:20;16.80;99.90
8114;DHT22;4099;52.684;9.918;2023-08-01T21:27:22;16.70;99.90
8114;DHT22;4099;52.684;9.918;2023-08-01T21:32:24;16.60;99.90
8114;DHT22;4099;52.684;9.918;2023-08-01T21:37:27;16.50;99.90
8114;DHT22;4099;52.684;9.918;2023-08-01T21:42:30;16.60;99.90
8114;DHT22;4099;52.684;9.918;2023-08-01T21:47:32;16.60;99.90
8114;DHT22;4099;52.684;9.918;2023-08-01T21:52:36;16.50;99.90
8114;DHT22;4099;52.684;9.918;2023-08-01T21:57:39;16.50;99.90
8114;DHT22;4099;52.684;9.918;2023-08-01T22:02:41;16.50;99.90
8114;DHT22;4099;52.684;9.918;2023-08-01T22:07:44;16.50;99.90
8114;DHT22;4099;52.684;9.918;2023-08-01T22:12:46;16.50;99.90
8114;DHT22;4099;52.684;9.918;2023-08-01T22:17:48;16.60;99.90
8114;DHT22;4099;52.684;9.918;2023-08-01T22:22:51;16.50;99.90
8114;DHT22;4099;52.684;9.918;2023-08-01T22:27:55;16.50;99.90
8114;DHT22;4099;52.684;9.918;2023-08-01T22:32:57;16.50;99.90
8114;DHT22;4099;52.684;9.918;2023-08-01T22:38:01;16.40;99.90
8114;DHT22;4099;52.684;9.918;2023-08-01T22:43:03;16.40;99.90
8114;DHT22;4099;52.684;9.918;2023-08-01T22:48:05;16.30;99.90
8114;DHT22;4099;52.684;9.918;2023-08-01T22:53:08;16.20;99.90
8114;DHT22;4099;52.684;9.918;2023-08-01T22:58:10;16.10;99.90
8114;DHT22;4099;52.684;9.918;2023-08-01T23:03:13;16.10;99.90
8114;DHT22;4099;52.684;9.918;2023-08-01T23:08:16;16.10;99.90
8114;DHT22;4099;52.684;9.918;2023-08-01T23:13:19;16.00;99.90
8114;DHT22;4099;52.684;9.918;2023-08-01T23:18:21;16.00;99.90
8114;DHT22;4099;52.684;9.918;2023-08-01T23:23:25;16.00;99.90
8114;DHT22;4099;52.684;9.918;2023-08-01T23:28:27;15.90;99.90
8114;DHT22;4099;52.684;9.918;2023-08-01T23:33:29;15.90;99.90
8114;DHT22;4099;52.684;9.918;2023-08-01T23:38:33;15.90;99.90
8114;DHT22;4099;52.684;9.918;2023-08-01T23:43:35;15.90;99.90
8114;DHT22;4099;52.684;9.918;2023-08-01T23:48:37;15.90;99.90
8114;DHT22;4099;52.684;9.918;2023-08-01T23:53:42;15.80;99.90
8114;DHT22;4099;52.684;9.918;2023-08-01T23:58:44;15.90;99.90
